createdAt,value
2017-05-02T00:00:05.134Z,10.21
2017-05-02T00:10:05.117Z,10.17
2017-05-02T00:20:05.091Z,10.19
2017-05-02T00:30:05.090Z,10.14
2017-05-02T00:40:05.205Z,10.1
2017-05-02T00:50:05.154Z,10.01
2017-05-02T01:00:05.217Z,9.89
2017-05-02T01:10:05.133Z,9.83
2017-05-02T01:20:05.133Z,9.81
2017-05-02T01:30:05.140Z,9.83
2017-05-02T01:40:05.261Z,9.85
2017-05-02T01:50:05.246Z,9.83
2017-05-02T02:00:05.176Z,9.83
2017-05-02T02:10:05.509Z,9.91
2017-05-02T02:20:05.182Z,9.88
2017-05-02T02:30:05.194Z,9.88
2017-05-02T02:40:05.255Z,9.81
2017-05-02T02:50:05.226Z,9.82
2017-05-02T03:00:05.201Z,9.85
2017-05-02T03:10:05.242Z,9.78
2017-05-02T03:20:05.282Z,9.82
2017-05-02T03:30:05.334Z,9.88
2017-05-02T03:40:05.262Z,9.85
2017-05-02T03:50:05.256Z,9.81
2017-05-02T04:00:05.288Z,9.86
2017-05-02T04:10:05.275Z,9.89
2017-05-02T04:20:05.305Z,9.96
2017-05-02T04:30:05.290Z,10.01
2017-05-02T04:40:05.357Z,10.09
2017-05-02T04:50:05.311Z,10.03
2017-05-02T05:00:05.341Z,10.25
2017-05-02T05:10:05.346Z,10.32
2017-05-02T05:20:05.416Z,10.43
2017-05-02T05:30:05.374Z,10.46
2017-05-02T05:40:05.365Z,10.6
2017-05-02T05:50:05.390Z,10.74
2017-05-02T06:00:05.827Z,10.98
2017-05-02T06:10:05.413Z,11.02
2017-05-02T06:20:05.400Z,10.99
2017-05-02T06:30:05.421Z,10.94
2017-05-02T06:40:05.424Z,10.94
2017-05-02T06:50:05.415Z,10.77
2017-05-02T07:00:05.526Z,11.07
2017-05-02T07:10:05.419Z,11.38
2017-05-02T07:20:05.462Z,11.74
2017-05-02T07:30:05.451Z,12.6
2017-05-02T07:40:05.462Z,13.17
2017-05-02T07:50:05.469Z,13.7
2017-05-02T08:00:05.496Z,13.94
2017-05-02T08:10:05.573Z,13.95
2017-05-02T08:20:11.184Z,13.58
2017-05-02T08:30:05.517Z,13.69
2017-05-02T08:40:05.542Z,13.71
2017-05-02T08:50:05.624Z,13.56
2017-05-02T09:00:05.544Z,13.47
2017-05-02T09:10:05.844Z,14.29
2017-05-02T09:20:05.824Z,14.29
2017-05-02T09:30:05.594Z,14.1
2017-05-02T09:40:05.674Z,14.02
2017-05-02T09:50:05.625Z,14.64
2017-05-02T10:00:05.665Z,15.49
2017-05-02T10:10:05.611Z,15.79
2017-05-02T10:20:06.447Z,15.19
2017-05-02T10:30:05.746Z,14.94
2017-05-02T10:40:05.731Z,15.21
2017-05-02T10:50:05.731Z,14.93
2017-05-02T11:00:06.589Z,15.7
2017-05-02T11:10:06.215Z,15.68
2017-05-02T11:20:05.766Z,15.33
2017-05-02T11:30:06.427Z,14.86
2017-05-02T11:40:06.147Z,15.21
2017-05-02T11:50:05.738Z,15.03
2017-05-02T12:00:05.712Z,15.51
2017-05-02T12:10:05.752Z,16.12
2017-05-02T12:20:05.984Z,15.36
2017-05-02T12:30:05.768Z,14.49
2017-05-02T12:40:05.766Z,14.02
2017-05-02T12:50:05.809Z,13.61
2017-05-02T13:00:05.801Z,13.02
2017-05-02T13:10:05.855Z,12.49
2017-05-02T13:20:05.796Z,11.89
2017-05-02T13:30:05.819Z,11.89
2017-05-02T13:40:05.822Z,11.78
2017-05-02T13:50:05.859Z,11.5
2017-05-02T14:00:05.884Z,11.27
2017-05-02T14:10:05.851Z,11.24
2017-05-02T14:20:05.890Z,10.98
2017-05-02T14:30:05.906Z,10.7
2017-05-02T14:40:05.872Z,10.59
2017-05-02T14:50:05.879Z,10.22
2017-05-02T15:00:05.941Z,10.04
2017-05-02T15:10:05.912Z,9.99
2017-05-02T15:20:05.965Z,9.96
2017-05-02T15:30:05.938Z,9.96
2017-05-02T15:40:05.934Z,10
2017-05-02T15:50:06.075Z,10.1
2017-05-02T16:00:06.397Z,10.03
2017-05-02T16:10:05.954Z,9.99
2017-05-02T16:20:06.027Z,10.09
2017-05-02T16:30:05.997Z,10.09
2017-05-02T16:40:06.057Z,10.09
2017-05-02T16:50:05.989Z,9.83
2017-05-02T17:00:06.131Z,9.81
2017-05-02T17:10:06.024Z,9.82
2017-05-02T17:20:06.025Z,9.64
2017-05-02T17:30:06.056Z,9.56
2017-05-02T17:40:06.042Z,9.42
2017-05-02T17:50:06.056Z,9.32
2017-05-02T18:00:06.055Z,9.1
2017-05-02T18:10:06.067Z,8.94
2017-05-02T18:20:06.067Z,8.94
2017-05-02T18:30:06.113Z,8.81
2017-05-02T18:40:06.142Z,8.73
2017-05-02T18:50:06.135Z,8.54
2017-05-02T19:00:06.179Z,8.48
2017-05-02T19:10:06.183Z,8.55
2017-05-02T19:20:06.218Z,8.54
2017-05-02T19:30:06.147Z,8.6
2017-05-02T19:40:06.209Z,8.53
2017-05-02T19:50:06.344Z,8.48
2017-05-02T20:00:06.248Z,8.26
2017-05-02T20:10:06.341Z,8.3
2017-05-02T20:20:06.266Z,8.35
2017-05-02T20:30:06.225Z,8.29
2017-05-02T20:40:06.217Z,8.44
2017-05-02T20:50:06.330Z,8.54
2017-05-02T21:00:06.328Z,8.57
2017-05-02T21:10:08.842Z,8.54
2017-05-02T21:20:06.247Z,8.54
2017-05-02T21:30:06.282Z,8.54
2017-05-02T21:40:06.247Z,8.55
2017-05-02T21:50:06.317Z,8.53
2017-05-02T22:00:06.378Z,8.65
2017-05-02T22:10:10.525Z,8.66
2017-05-02T22:20:06.393Z,8.69
2017-05-02T22:30:06.321Z,8.73
2017-05-02T22:40:06.308Z,8.65
2017-05-02T22:50:06.406Z,8.66
2017-05-02T23:00:06.343Z,8.86
2017-05-02T23:10:06.322Z,8.84
2017-05-02T23:20:06.340Z,8.78
2017-05-02T23:30:06.428Z,8.93
2017-05-02T23:40:06.378Z,8.87
2017-05-02T23:50:06.350Z,8.91
